Hauptseite
METAR-TAF:

METAR-TAF

Flughäfen :

Seyresse

Dax, Frankreich

Breite: 43-41N, Länge: 001-04W, Höhe: 32 m

Beobachtung

Neuester Wetterbericht von vor 1 Stunde und 10 Minuten, um 06:00 UTC
Wind 4 kt aus Ost/Nordost, variierte zwischen Nord/Nordost und Ost
Temperatur 19°C
Luftfeuchtigkeit 88%
Luftdruck 1015 hPa
Sichtweite: 6000 m

METAR: LFBY 180600Z 07004KT 030V090 6000 NSC 19/17 Q1015

Zeit: 09:10 (07:10 UTC)

Prognose

Neuester Wetterbericht von vor 23 Stunden und 10 Minuten, um 08:00 UTC
Gültige Prognose vom 17 um 09 UTC bis 17 um 18 UTC
Wind 3 kt aus Süd/Südost
Sichtweite 10 km oder mehr
Durchbrochene Bewölkung in der Höhe von 4000 ft

TAF: LFBY 170800Z 1709/1718 16003KT 9999 BKN040

Wetterbeobachtungen und Prognosen von mehr als 4000 Flughäfen (METAR und TAF Bericht).

Die verfügbaren Stationen werden durch gelbe und rote Markierungen auf der Karte dargestellt.

Führen Sie die Maus auf sie, um den Namen der Station zu sehen.

Darauf klicken, um die Beobachtung von Wetterbeobachtungen und Prognosen zu sehen.

Um die Karte zu ändern : klicken Sie auf den grünen Tasten mit einem schwarzen Kreuz Zum Vergrößern, auf den grünen Button mit einem Gedankenstrich zu verkleinern, oder auf die grünen Pfeile für benachbarte Karten.


METAR-TAF: